Airfield :
LOGIN :

Register | Disclaimer

   EN    FR    IT 

 










Legend :    VFR   Marginal VFR   IFR   Intensive IFR   Very Intensive IFR
Visi :
Ceiling :
>= 8 km
>= 3000ft
5 to 8 km
1000 to 3000 ft
1500m to 5 km
500 to 1000 ft
800 to 1500m
200 to 500 ft
< 800m
< 200 ft
Symbols :   Thunderstorms  Fog  Heavy snow  Heavy precipitations  Wind > 20 kt
SIGMETs :     Misc.  Thunderstorms  Icing  Turbulence  Mountain Waves  Volcanic Ashes






- Airport Elevation : 80 ft
- IATA code : LPL


EGGP - Liverpool John Lennon

CURRENT METAR :
  • 081950Z 19009KT 9999 -DZRA SCT028 BKN045 08/06 Q1000

EXPIRED METARs :
  • 081920Z 19010KT 9999 -RA SCT030 SCT040 08/07 Q1000
  • 081850Z 19010KT 9000 -RA SCT028 BKN040 07/07 Q1000 RERA
  • 081820Z 17010KT 9999 -RA FEW020 SCT035 08/06 Q0999
  • 081750Z 19013KT 9000 -RA SCT028 BKN035 08/06 Q0999
  • 081720Z 19011KT 9999 FEW030 SCT040 08/06 Q0999
  • 081650Z 19011KT 9999 SCT028 SCT040 08/06 Q0999
  • 081620Z 20012KT 9999 SCT038 08/07 Q0999
  • 081550Z 20011KT 9999 SCT031 08/07 Q0999
  • 081520Z 20010KT 9999 -DZRA SCT020 SCT040 08/07 Q0999

TAF TAF EGGP
Valid from the 08 at 18:00 until the 09 at 18:00 UTC


081655Z 0818/0918 19008KT 9999 FEW030
PROB30
TEMPO 0818/0821 20015G25KT 7000 RA SHRA BKN014
PROB30
TEMPO 0821/0903 19015G25KT
BECMG 0903/0906 13015G25KT
TEMPO 0904/0918 7000 RA BKN012
PROB30
TEMPO 0905/0910 3000 +RA BKN008
BECMG 0909/0912 25018G35KT
TEMPO 0912/0918 27025G45KT
PROB30 0916/0918 3000 +RA BKN008
ATIS : +44 151 907 2000 (option 5 or ext 5150)
Met : +44 871 750 5150



MET'MAP, your aeronautical weather chart ! - Copyright ORBIFLY December 2007 - Disclaimer

ORBIFLY MET'MAP TEAM :

Programming & Development : Alexandra Zaïnal
Original concept : Baudouin d'Aumeries
Technical & hardware support : Manuel Goepfert
Assistance : Marc-Olivier Méhu




SOURCES & CREDITS :

   NOAA